createdAt,value
2023-01-29T00:28:47.565Z,-2.40
2023-01-29T00:58:51.139Z,-2.70
2023-01-29T01:28:54.544Z,-2.96
2023-01-29T01:58:57.454Z,-3.20
2023-01-29T02:29:02.449Z,-3.23
2023-01-29T02:59:05.503Z,-3.05
2023-01-29T03:29:08.760Z,-2.86
2023-01-29T03:59:12.048Z,-2.74
2023-01-29T04:29:15.377Z,-2.64
2023-01-29T04:59:18.299Z,-2.70
2023-01-29T05:29:22.426Z,-2.63
2023-01-29T05:59:25.300Z,-2.57
2023-01-29T06:29:29.404Z,-2.68
2023-01-29T06:59:32.318Z,-2.71
2023-01-29T07:29:36.296Z,-2.57
2023-01-29T07:59:39.107Z,-2.43
2023-01-29T08:29:43.214Z,-2.16
2023-01-29T08:59:46.103Z,-2.03
2023-01-29T09:29:51.094Z,-1.84
2023-01-29T09:59:54.249Z,-1.74
2023-01-29T11:00:21.418Z,-1.43
2023-01-29T12:01:00.490Z,-1.21
2023-01-29T12:31:26.458Z,-1.10
2023-01-29T13:01:30.980Z,-1.04
2023-01-29T14:01:53.087Z,-0.94
2023-01-29T15:02:14.505Z,-1.00
2023-01-29T15:32:18.223Z,-1.02
2023-01-29T16:02:27.156Z,-0.92
2023-01-29T16:32:34.243Z,-0.89
2023-01-29T17:02:38.420Z,-0.93
2023-01-29T17:32:58.355Z,-0.98
2023-01-29T18:03:14.889Z,-0.96
2023-01-29T18:33:18.602Z,-0.95
2023-01-29T19:03:22.651Z,-0.87
2023-01-29T19:33:25.670Z,-0.99
2023-01-29T20:03:45.451Z,-1.11
2023-01-29T20:33:48.836Z,-1.19
2023-01-29T21:03:54.210Z,-1.18
2023-01-29T21:33:57.367Z,-1.14
2023-01-29T22:04:00.383Z,-1.28
2023-01-29T22:34:04.397Z,-1.36
2023-01-29T23:04:08.103Z,-1.42
2023-01-29T23:34:10.967Z,-1.50
